createdAt,value
2022-08-09T00:00:11.495Z,63.5
2022-08-09T00:03:02.746Z,63.5
2022-08-09T00:06:25.543Z,63.5
2022-08-09T00:09:02.764Z,63.5
2022-08-09T00:12:07.081Z,63.5
2022-08-09T00:15:15.966Z,63.5
2022-08-09T00:18:14.777Z,63.5
2022-08-09T00:21:03.113Z,63.5
2022-08-09T00:24:02.742Z,63.5
2022-08-09T00:27:02.714Z,64.7
2022-08-09T00:30:27.698Z,65
2022-08-09T00:33:03.030Z,65
2022-08-09T00:36:03.443Z,65
2022-08-09T00:39:02.834Z,65
2022-08-09T00:45:18.324Z,65
2022-08-09T00:48:02.778Z,65
2022-08-09T00:51:12.903Z,67.6
2022-08-09T00:54:02.755Z,67.6
2022-08-09T00:57:08.734Z,67.6
2022-08-09T01:00:23.578Z,67.6
2022-08-09T01:03:03.190Z,67.6
2022-08-09T01:06:20.099Z,67.6
2022-08-09T01:09:06.017Z,67.6
2022-08-09T01:12:03.914Z,67.6
2022-08-09T01:15:09.959Z,67.6
2022-08-09T01:18:02.763Z,67.6
2022-08-09T01:21:02.749Z,67.6
2022-08-09T01:24:07.349Z,67.6
2022-08-09T01:27:02.782Z,67.7
2022-08-09T01:30:03.032Z,68.5
2022-08-09T01:33:02.783Z,68.5
2022-08-09T01:36:02.748Z,68.5
2022-08-09T01:39:02.846Z,68.5
2022-08-09T01:42:13.236Z,68.5
2022-08-09T01:45:02.830Z,68.5
2022-08-09T01:48:08.011Z,68.5
2022-08-09T01:51:04.724Z,68.5
2022-08-09T01:54:02.912Z,68.5
2022-08-09T01:57:06.524Z,68.5
2022-08-09T02:00:37.988Z,68.5
2022-08-09T02:03:02.731Z,69.3
2022-08-09T02:06:09.194Z,69.3
2022-08-09T02:09:04.765Z,69.3
2022-08-09T02:12:04.021Z,69.3
2022-08-09T02:15:02.828Z,69.3
2022-08-09T02:18:14.167Z,71.1
2022-08-09T02:21:02.776Z,71.1
2022-08-09T02:24:04.247Z,71.1
2022-08-09T02:27:02.784Z,71.1
2022-08-09T02:30:04.433Z,71.1
2022-08-09T02:33:02.758Z,71.1
2022-08-09T02:36:06.723Z,71.1
2022-08-09T02:39:02.811Z,71.1
2022-08-09T02:42:04.706Z,71.1
2022-08-09T02:45:02.991Z,71.1
2022-08-09T02:48:02.792Z,71.1
2022-08-09T02:51:04.827Z,71.1
2022-08-09T02:54:05.045Z,71.1
2022-08-09T02:57:23.331Z,71.1
2022-08-09T03:00:28.165Z,71.1
2022-08-09T03:03:04.009Z,71.1
2022-08-09T03:06:02.774Z,71.1
2022-08-09T03:09:02.779Z,74.2
2022-08-09T03:12:15.485Z,74.2
2022-08-09T03:15:02.731Z,74.2
2022-08-09T03:18:11.877Z,74.2
2022-08-09T03:21:02.779Z,74.6
2022-08-09T03:24:07.444Z,74.6
2022-08-09T03:27:04.337Z,74.6
2022-08-09T03:30:07.569Z,74.6
2022-08-09T03:33:05.873Z,74.6
2022-08-09T03:36:19.352Z,74.6
2022-08-09T03:39:02.856Z,74.6
2022-08-09T03:42:09.281Z,74.6
2022-08-09T03:45:02.784Z,74.6
2022-08-09T03:48:02.746Z,74.6
2022-08-09T03:51:03.500Z,74.6
2022-08-09T03:54:04.866Z,74.7
2022-08-09T03:57:04.190Z,74.7
2022-08-09T04:00:03.697Z,74.7
2022-08-09T04:03:03.069Z,74.7
2022-08-09T04:06:06.736Z,74.8
2022-08-09T04:09:02.786Z,74.8
2022-08-09T04:12:04.729Z,74.8
2022-08-09T04:15:52.383Z,74.8
2022-08-09T04:18:03.078Z,74.8
2022-08-09T04:21:02.828Z,74.8
2022-08-09T04:24:04.863Z,74.8
2022-08-09T04:27:02.774Z,74.8
2022-08-09T04:30:04.303Z,74.8
2022-08-09T04:33:03.562Z,74.8
2022-08-09T04:36:02.790Z,74.8
2022-08-09T04:39:02.837Z,74.8
2022-08-09T04:42:05.064Z,73.8
2022-08-09T04:45:02.990Z,73.8
2022-08-09T04:48:12.577Z,73.8
2022-08-09T04:51:03.734Z,73.8
2022-08-09T04:54:02.779Z,73.8
2022-08-09T04:57:09.351Z,73.8
2022-08-09T05:00:02.846Z,73.6
2022-08-09T05:03:39.784Z,73.6
2022-08-09T05:06:09.784Z,73.6
2022-08-09T05:09:04.090Z,73.6
2022-08-09T05:12:02.813Z,73.6
2022-08-09T05:15:11.309Z,73.6
2022-08-09T05:21:02.795Z,73.6
2022-08-09T05:24:07.173Z,73.6
2022-08-09T05:27:02.794Z,73.6
2022-08-09T05:30:04.329Z,73.6
2022-08-09T05:33:04.078Z,73.6
2022-08-09T05:36:03.143Z,73.6
2022-08-09T05:39:02.853Z,73.6
2022-08-09T05:42:06.933Z,73.6
2022-08-09T05:45:02.848Z,74.3
2022-08-09T05:48:03.737Z,74.3
2022-08-09T05:51:47.860Z,74.6
2022-08-09T05:54:02.929Z,74.6
2022-08-09T05:57:02.830Z,74.6
2022-08-09T06:00:02.890Z,74.6
2022-08-09T06:03:03.358Z,74.6
2022-08-09T06:06:08.753Z,74.6
2022-08-09T06:09:03.606Z,74.6
2022-08-09T06:12:02.862Z,75.2
2022-08-09T06:15:10.155Z,75.2
2022-08-09T06:18:03.281Z,75.2
2022-08-09T06:21:04.181Z,75.2
2022-08-09T06:24:04.976Z,75.2
2022-08-09T06:27:03.190Z,76.4
2022-08-09T06:30:14.026Z,76.4
2022-08-09T06:33:48.630Z,76.4
2022-08-09T06:36:03.210Z,76.4
2022-08-09T06:39:13.722Z,76.4
2022-08-09T06:42:13.742Z,74.8
2022-08-09T06:48:03.867Z,74.7
2022-08-09T06:51:06.587Z,74.7
2022-08-09T06:54:03.380Z,74.7
2022-08-09T06:57:02.790Z,73.4
2022-08-09T07:03:07.416Z,73.4
2022-08-09T07:06:07.714Z,73.4
2022-08-09T07:09:02.764Z,72.2
2022-08-09T07:12:02.860Z,72.2
2022-08-09T07:18:05.463Z,72.2
2022-08-09T07:21:02.786Z,72.2
2022-08-09T07:24:02.853Z,72.2
2022-08-09T07:27:02.743Z,72.2
2022-08-09T07:30:02.867Z,72.2
2022-08-09T07:33:03.017Z,69.2
2022-08-09T07:36:03.179Z,69.2
2022-08-09T07:39:04.636Z,68.8
2022-08-09T07:42:03.163Z,68.8
2022-08-09T07:45:40.792Z,68.8
2022-08-09T07:48:07.217Z,67.9
2022-08-09T07:54:09.773Z,67.9
2022-08-09T07:57:02.963Z,67.9
2022-08-09T08:00:08.832Z,67.9
2022-08-09T08:03:08.239Z,67.2
2022-08-09T08:06:02.814Z,67.2
2022-08-09T08:09:35.385Z,67.2
2022-08-09T08:12:31.349Z,67.2
2022-08-09T08:15:03.233Z,67.2
2022-08-09T08:18:02.846Z,65.8
2022-08-09T08:21:02.775Z,65.8
2022-08-09T08:24:16.647Z,65.8
2022-08-09T08:27:02.814Z,65.8
2022-08-09T08:30:07.173Z,64.1
2022-08-09T08:33:06.469Z,64.1
2022-08-09T08:36:06.285Z,63.2
2022-08-09T08:39:03.069Z,63.2
2022-08-09T08:42:04.269Z,63.2
2022-08-09T08:45:15.653Z,61.4
2022-08-09T08:48:02.855Z,61.4
2022-08-09T08:51:02.823Z,61.4
2022-08-09T08:54:07.033Z,61.4
2022-08-09T08:57:03.044Z,60.2
2022-08-09T09:00:08.089Z,60.2
2022-08-09T09:03:16.532Z,60.2
2022-08-09T09:06:07.922Z,60.2
2022-08-09T09:09:20.870Z,58.1
2022-08-09T09:12:03.157Z,58.1
2022-08-09T09:15:02.794Z,58.1
2022-08-09T09:18:02.825Z,58.1
2022-08-09T09:21:02.822Z,58.1
2022-08-09T09:24:21.420Z,58.1
2022-08-09T09:27:02.840Z,56.9
2022-08-09T09:30:40.325Z,56.9
2022-08-09T09:33:14.063Z,56.9
2022-08-09T09:36:23.026Z,56.9
2022-08-09T09:39:02.884Z,56.9
2022-08-09T09:42:03.634Z,56.9
2022-08-09T09:45:05.094Z,56.9
2022-08-09T09:48:05.081Z,54.6
2022-08-09T09:51:02.840Z,54.6
2022-08-09T09:54:19.043Z,54.6
2022-08-09T10:00:02.911Z,54.6
2022-08-09T10:03:13.928Z,54.6
2022-08-09T10:06:07.462Z,54.6
2022-08-09T10:09:11.662Z,52.5
2022-08-09T10:12:31.689Z,52.5
2022-08-09T10:15:03.028Z,52.5
2022-08-09T10:18:03.261Z,52.5
2022-08-09T10:21:04.367Z,52.5
2022-08-09T10:24:06.066Z,52.5
2022-08-09T10:27:02.821Z,49.9
2022-08-09T10:33:08.017Z,49.9
2022-08-09T10:36:04.646Z,49.9
2022-08-09T10:39:03.018Z,49.9
2022-08-09T10:42:05.803Z,49.9
2022-08-09T10:45:04.323Z,50
2022-08-09T10:48:32.974Z,50
2022-08-09T10:51:03.330Z,50
2022-08-09T10:54:10.057Z,50
2022-08-09T10:57:06.555Z,50
2022-08-09T11:00:05.190Z,50
2022-08-09T11:03:49.994Z,50
2022-08-09T11:06:03.462Z,50
2022-08-09T11:09:19.607Z,50
2022-08-09T11:12:07.127Z,50
2022-08-09T11:15:02.823Z,50
2022-08-09T11:18:06.270Z,48.3
2022-08-09T11:21:02.812Z,48.3
2022-08-09T11:24:04.169Z,48.3
2022-08-09T11:27:08.800Z,48.3
2022-08-09T11:30:32.206Z,48.6
2022-08-09T11:33:02.797Z,48.6
2022-08-09T11:36:03.473Z,48.6
2022-08-09T11:39:03.412Z,48.6
2022-08-09T11:42:03.209Z,48.6
2022-08-09T11:45:02.796Z,48.6
2022-08-09T11:48:24.847Z,48.6
2022-08-09T11:54:21.737Z,48.6
2022-08-09T11:57:02.957Z,48.6
2022-08-09T12:00:02.886Z,48.6
2022-08-09T12:03:56.373Z,48.6
2022-08-09T12:06:03.341Z,48.6
2022-08-09T12:09:03.653Z,48.6
2022-08-09T12:12:12.429Z,47
2022-08-09T12:15:11.458Z,47
2022-08-09T12:18:02.811Z,47
2022-08-09T12:21:10.979Z,47
2022-08-09T12:24:12.350Z,46.2
2022-08-09T12:30:41.553Z,46.2
2022-08-09T12:33:02.785Z,46.2
2022-08-09T12:36:03.378Z,46.2
2022-08-09T12:39:03.590Z,46.2
2022-08-09T12:42:02.830Z,46.2
2022-08-09T12:45:03.489Z,46.2
2022-08-09T12:48:02.961Z,46.2
2022-08-09T12:51:06.560Z,46.2
2022-08-09T12:54:03.730Z,46.2
2022-08-09T12:57:02.756Z,46.2
2022-08-09T13:00:07.631Z,46.2
2022-08-09T13:03:02.774Z,46.2
2022-08-09T13:06:23.215Z,45.8
2022-08-09T13:09:03.419Z,45.8
2022-08-09T13:12:04.700Z,45.8
2022-08-09T13:15:02.773Z,45.8
2022-08-09T13:18:17.367Z,45.8
2022-08-09T13:24:56.382Z,45.8
2022-08-09T13:27:08.539Z,45.8
2022-08-09T13:33:02.925Z,45.8
2022-08-09T13:36:45.146Z,45.8
2022-08-09T13:42:04.845Z,45.4
2022-08-09T13:45:02.818Z,45.4
2022-08-09T13:48:04.151Z,45.4
2022-08-09T13:51:02.786Z,45.4
2022-08-09T13:54:02.798Z,45.4
2022-08-09T13:57:08.549Z,44.2
2022-08-09T14:00:03.323Z,44.2
2022-08-09T14:06:05.370Z,44.2
2022-08-09T14:09:04.473Z,44.2
2022-08-09T14:12:15.658Z,44.2
2022-08-09T14:15:03.902Z,44.2
2022-08-09T14:18:32.315Z,44.2
2022-08-09T14:21:05.924Z,44.2
2022-08-09T14:24:18.479Z,44.2
2022-08-09T14:27:03.292Z,44.2
2022-08-09T14:30:43.807Z,44.2
2022-08-09T14:33:13.287Z,44.2
2022-08-09T14:36:23.254Z,44.2
2022-08-09T14:39:10.965Z,44.2
2022-08-09T14:42:02.795Z,44.2
2022-08-09T14:45:15.008Z,44.2
2022-08-09T14:48:05.892Z,44.2
2022-08-09T14:51:02.816Z,44.2
2022-08-09T14:54:02.818Z,44.2
2022-08-09T14:57:02.967Z,45.7
2022-08-09T15:00:03.490Z,45.7
2022-08-09T15:03:03.723Z,45.7
2022-08-09T15:06:06.317Z,45.7
2022-08-09T15:09:02.842Z,45.7
2022-08-09T15:12:03.044Z,45.7
2022-08-09T15:15:02.816Z,45.7
2022-08-09T15:18:02.969Z,45.7
2022-08-09T15:24:23.269Z,45.7
2022-08-09T15:27:02.854Z,45.7
2022-08-09T15:33:09.351Z,45.7
2022-08-09T15:36:08.083Z,43.5
2022-08-09T15:39:03.267Z,43.5
2022-08-09T15:42:02.843Z,43.5
2022-08-09T15:45:02.796Z,43.5
2022-08-09T15:48:31.844Z,43.5
2022-08-09T15:51:02.831Z,43.5
2022-08-09T15:54:42.619Z,43.5
2022-08-09T15:57:02.827Z,43.5
2022-08-09T16:00:02.951Z,43.5
2022-08-09T16:03:04.511Z,43.5
2022-08-09T16:06:05.855Z,43.5
2022-08-09T16:09:07.068Z,43.5
2022-08-09T16:12:04.786Z,43.5
2022-08-09T16:15:02.812Z,43.5
2022-08-09T16:18:03.080Z,43.5
2022-08-09T16:21:02.775Z,43.5
2022-08-09T16:24:05.097Z,43.5
2022-08-09T16:27:04.991Z,43.5
2022-08-09T16:30:08.296Z,43.5
2022-08-09T16:33:03.627Z,43.5
2022-08-09T16:36:18.539Z,43.5
2022-08-09T16:39:02.769Z,43.5
2022-08-09T16:42:07.184Z,43.5
2022-08-09T16:45:02.783Z,43.5
2022-08-09T16:49:08.571Z,43.5
2022-08-09T16:51:15.826Z,41.6
2022-08-09T16:54:36.580Z,41.6
2022-08-09T16:57:02.774Z,41.6
2022-08-09T17:00:04.754Z,41.6
2022-08-09T17:03:04.080Z,41.6
2022-08-09T17:07:03.920Z,41.6
2022-08-09T17:09:49.206Z,41.6
2022-08-09T17:12:02.841Z,41.6
2022-08-09T17:15:18.121Z,41.6
2022-08-09T17:18:03.398Z,41.6
2022-08-09T17:21:02.781Z,41.6
2022-08-09T17:24:32.977Z,41.6
2022-08-09T17:27:02.837Z,41.6
2022-08-09T17:30:14.810Z,41.6
2022-08-09T17:33:25.078Z,41.6
2022-08-09T17:36:02.838Z,41.6
2022-08-09T17:39:02.841Z,41.6
2022-08-09T17:42:03.820Z,41.8
2022-08-09T17:45:03.303Z,41.8
2022-08-09T17:48:05.221Z,41.8
2022-08-09T17:51:20.232Z,41.4
2022-08-09T17:54:02.835Z,41.4
2022-08-09T17:57:03.953Z,41.4
2022-08-09T18:00:09.766Z,41.4
2022-08-09T18:03:02.965Z,41.4
2022-08-09T18:06:04.033Z,41.4
2022-08-09T18:09:03.077Z,41.4
2022-08-09T18:12:20.469Z,41.4
2022-08-09T18:15:02.818Z,41.4
2022-08-09T18:18:10.050Z,41.4
2022-08-09T18:21:24.890Z,41.4
2022-08-09T18:24:16.596Z,41.4
2022-08-09T18:27:03.738Z,42
2022-08-09T18:30:51.781Z,42
2022-08-09T18:33:02.810Z,42
2022-08-09T18:36:03.044Z,42
2022-08-09T18:39:05.670Z,42
2022-08-09T18:42:03.033Z,42
2022-08-09T18:45:10.524Z,42.6
2022-08-09T18:48:02.796Z,42.6
2022-08-09T18:51:02.789Z,42.9
2022-08-09T18:54:28.219Z,42.9
2022-08-09T18:57:09.017Z,42.9
2022-08-09T19:00:07.548Z,42.9
2022-08-09T19:03:03.034Z,42.9
2022-08-09T19:06:16.730Z,43.9
2022-08-09T19:09:05.595Z,43.9
2022-08-09T19:12:02.791Z,43.9
2022-08-09T19:15:06.329Z,43.9
2022-08-09T19:18:05.371Z,43.9
2022-08-09T19:21:05.212Z,43.9
2022-08-09T19:27:03.322Z,44.8
2022-08-09T19:30:32.202Z,44.8
2022-08-09T19:33:06.499Z,44.8
2022-08-09T19:36:03.241Z,44.8
2022-08-09T19:39:07.984Z,44.8
2022-08-09T19:42:04.414Z,44.8
2022-08-09T19:45:02.853Z,45.6
2022-08-09T19:48:05.281Z,45.6
2022-08-09T19:51:02.797Z,45.8
2022-08-09T19:54:02.835Z,45.8
2022-08-09T19:57:03.421Z,45.8
2022-08-09T20:00:12.235Z,45.8
2022-08-09T20:06:05.840Z,45.8
2022-08-09T20:09:02.748Z,45.8
2022-08-09T20:12:07.793Z,45.8
2022-08-09T20:15:04.599Z,48
2022-08-09T20:18:02.784Z,48
2022-08-09T20:21:04.389Z,48
2022-08-09T20:24:02.747Z,48
2022-08-09T20:27:02.785Z,48
2022-08-09T20:30:02.817Z,48
2022-08-09T20:33:03.641Z,48
2022-08-09T20:36:02.814Z,48
2022-08-09T20:42:02.811Z,49.8
2022-08-09T20:48:03.005Z,50.7
2022-08-09T20:51:05.190Z,50.7
2022-08-09T20:54:05.884Z,50.7
2022-08-09T20:57:02.785Z,50.7
2022-08-09T21:00:34.492Z,50.7
2022-08-09T21:03:07.109Z,50.7
2022-08-09T21:06:06.201Z,51.1
2022-08-09T21:09:03.141Z,51.1
2022-08-09T21:15:03.988Z,51.1
2022-08-09T21:18:30.734Z,51.1
2022-08-09T21:21:19.229Z,51.1
2022-08-09T21:24:04.730Z,51.1
2022-08-09T21:27:51.397Z,52.5
2022-08-09T21:30:03.366Z,52.5
2022-08-09T21:33:02.802Z,52.5
2022-08-09T21:36:04.209Z,52.5
2022-08-09T21:39:06.373Z,54.4
2022-08-09T21:42:12.933Z,54.5
2022-08-09T21:45:02.797Z,54.5
2022-08-09T21:48:02.738Z,54.5
2022-08-09T21:51:04.781Z,54.5
2022-08-09T21:54:03.070Z,55.6
2022-08-09T21:57:03.244Z,55.6
2022-08-09T22:00:03.999Z,55.6
2022-08-09T22:03:04.540Z,56.2
2022-08-09T22:06:02.838Z,56.2
2022-08-09T22:09:02.731Z,56.2
2022-08-09T22:12:36.946Z,56.2
2022-08-09T22:15:03.189Z,56.2
2022-08-09T22:18:04.687Z,56.2
2022-08-09T22:21:02.819Z,56.2
2022-08-09T22:24:04.460Z,56.2
2022-08-09T22:27:06.824Z,58.4
2022-08-09T22:30:02.792Z,58.4
2022-08-09T22:33:03.766Z,58.4
2022-08-09T22:36:06.281Z,58.4
2022-08-09T22:39:03.110Z,58.4
2022-08-09T22:42:02.815Z,58.4
2022-08-09T22:48:39.056Z,58.4
2022-08-09T22:51:02.824Z,58.9
2022-08-09T22:54:05.642Z,58.9
2022-08-09T22:57:03.537Z,58.9
2022-08-09T23:00:04.244Z,58.9
2022-08-09T23:03:02.735Z,58.9
2022-08-09T23:06:02.803Z,58.9
2022-08-09T23:09:02.790Z,58.9
2022-08-09T23:12:02.750Z,60.5
2022-08-09T23:15:02.727Z,60.5
2022-08-09T23:18:02.796Z,60.5
2022-08-09T23:21:02.949Z,60.5
2022-08-09T23:24:09.434Z,60.5
2022-08-09T23:27:02.746Z,61.1
2022-08-09T23:30:02.792Z,62.4
2022-08-09T23:33:02.747Z,62.4
2022-08-09T23:36:09.550Z,62.4
2022-08-09T23:39:02.766Z,62.4
2022-08-09T23:42:02.750Z,62.4
2022-08-09T23:45:02.763Z,62.4
2022-08-09T23:48:10.728Z,62.4
2022-08-09T23:51:02.765Z,62.4
2022-08-09T23:54:05.443Z,62.4
2022-08-09T23:57:02.769Z,62.4
